createdAt,value
2023-02-09T00:01:16.334Z,48.90
2023-02-09T00:03:44.046Z,52.75
2023-02-09T00:06:14.615Z,52.85
2023-02-09T00:08:41.992Z,51.20
2023-02-09T00:11:10.809Z,47.40
2023-02-09T00:13:38.388Z,57.75
2023-02-09T00:16:05.531Z,46.90
2023-02-09T00:18:33.864Z,52.50
2023-02-09T00:21:04.385Z,51.58
2023-02-09T00:23:32.325Z,50.95
2023-02-09T00:26:04.797Z,59.72
2023-02-09T00:28:31.916Z,50.40
2023-02-09T00:30:59.048Z,49.53
2023-02-09T00:33:25.982Z,60.30
2023-02-09T00:35:52.769Z,53.80
2023-02-09T00:38:21.392Z,50.33
2023-02-09T00:40:48.913Z,45.22
2023-02-09T00:43:15.690Z,50.60
2023-02-09T00:45:42.489Z,49.88
2023-02-09T00:48:09.327Z,47.65
2023-02-09T00:50:36.116Z,52.20
2023-02-09T00:53:02.918Z,52.47
2023-02-09T00:55:29.712Z,52.72
2023-02-09T00:57:56.540Z,46.75
2023-02-09T01:00:23.523Z,47.42
2023-02-09T01:02:50.406Z,44.83
2023-02-09T01:05:17.474Z,55.05
2023-02-09T01:07:44.643Z,48.97
2023-02-09T01:10:11.523Z,49.38
2023-02-09T01:12:40.846Z,51.83
2023-02-09T01:15:09.336Z,53.45
2023-02-09T01:17:36.651Z,52.03
2023-02-09T01:20:05.489Z,51.10
2023-02-09T01:22:33.898Z,56.92
2023-02-09T01:25:00.734Z,53.42
2023-02-09T01:27:27.532Z,52.22
2023-02-09T01:29:54.339Z,52.00
2023-02-09T01:32:22.648Z,51.67
2023-02-09T01:34:54.010Z,48.40
2023-02-09T01:37:21.771Z,50.78
2023-02-09T01:39:48.692Z,55.75
2023-02-09T01:42:18.869Z,53.13
2023-02-09T01:44:45.612Z,52.85
2023-02-09T01:47:21.348Z,55.45
2023-02-09T01:49:50.033Z,59.60
2023-02-09T01:52:21.090Z,55.78
2023-02-09T01:55:10.176Z,57.17
2023-02-09T01:57:40.981Z,61.78
2023-02-09T02:00:12.133Z,61.55
2023-02-09T02:02:44.843Z,58.45
2023-02-09T02:05:11.918Z,54.45
2023-02-09T02:07:47.442Z,58.05
2023-02-09T02:10:14.619Z,57.90
2023-02-09T02:12:42.088Z,55.85
2023-02-09T02:15:11.805Z,56.00
2023-02-09T02:17:47.772Z,51.53
2023-02-09T02:20:34.843Z,60.00
2023-02-09T02:23:08.678Z,56.00
2023-02-09T02:25:51.184Z,56.97
2023-02-09T02:28:41.747Z,55.70
2023-02-09T02:34:15.932Z,56.28
2023-02-09T02:37:01.455Z,55.30
2023-02-09T02:39:45.829Z,60.60
2023-02-09T02:42:48.544Z,58.47
2023-02-09T02:45:40.123Z,58.60
2023-02-09T02:48:18.916Z,54.67
2023-02-09T02:50:56.219Z,50.88
2023-02-09T02:53:28.056Z,44.35
2023-02-09T02:55:59.800Z,49.70
2023-02-09T02:58:29.368Z,53.25
2023-02-09T03:01:00.312Z,54.63
2023-02-09T03:03:32.175Z,52.35
2023-02-09T03:06:02.918Z,46.17
2023-02-09T03:08:29.880Z,39.65
2023-02-09T03:10:57.058Z,46.22
2023-02-09T03:13:44.369Z,45.85
2023-02-09T03:16:42.923Z,39.72
2023-02-09T03:20:07.018Z,44.17
2023-02-09T03:22:44.905Z,36.88
2023-02-09T03:25:17.674Z,40.28
2023-02-09T03:27:50.322Z,40.08
2023-02-09T03:30:18.664Z,43.90
2023-02-09T03:32:47.214Z,43.50
2023-02-09T03:35:19.400Z,37.70
2023-02-09T03:37:46.293Z,40.00
2023-02-09T03:40:13.462Z,35.03
2023-02-09T03:42:40.289Z,39.05
2023-02-09T03:45:08.069Z,47.65
2023-02-09T03:47:35.208Z,34.10
2023-02-09T03:50:02.075Z,34.17
2023-02-09T03:52:30.968Z,40.42
2023-02-09T03:54:57.744Z,40.13
2023-02-09T03:57:24.719Z,32.88
2023-02-09T03:59:51.491Z,36.70
2023-02-09T04:02:18.329Z,36.70
2023-02-09T04:04:45.333Z,40.28
2023-02-09T04:07:12.492Z,36.08
2023-02-09T04:09:39.312Z,31.88
2023-02-09T04:12:06.421Z,31.80
2023-02-09T04:14:33.211Z,30.48
2023-02-09T04:17:00.005Z,29.60
2023-02-09T04:19:26.846Z,28.95
2023-02-09T04:21:53.644Z,28.48
2023-02-09T04:24:27.827Z,32.00
2023-02-09T04:26:54.626Z,32.03
2023-02-09T04:29:21.448Z,32.88
2023-02-09T04:31:48.324Z,26.33
2023-02-09T04:34:15.147Z,31.35
2023-02-09T04:36:42.010Z,30.23
2023-02-09T04:39:08.769Z,27.67
2023-02-09T04:41:35.672Z,30.08
2023-02-09T04:44:02.482Z,35.95
2023-02-09T04:46:29.336Z,29.15
2023-02-09T04:48:56.120Z,25.30
2023-02-09T04:51:22.961Z,27.75
2023-02-09T04:53:49.768Z,29.13
2023-02-09T04:56:17.344Z,32.25
2023-02-09T04:59:02.937Z,31.95
2023-02-09T05:01:30.634Z,31.98
2023-02-09T05:03:57.568Z,34.80
2023-02-09T05:06:24.459Z,27.00
2023-02-09T05:08:51.389Z,32.85
2023-02-09T05:11:18.476Z,38.95
2023-02-09T05:13:46.920Z,23.63
2023-02-09T05:16:17.443Z,34.15
2023-02-09T05:18:44.987Z,29.23
2023-02-09T05:21:11.903Z,32.42
2023-02-09T05:23:38.689Z,26.73
2023-02-09T05:26:05.709Z,29.35
2023-02-09T05:28:32.651Z,29.88
2023-02-09T05:30:59.495Z,32.38
2023-02-09T05:33:26.462Z,29.80
2023-02-09T05:35:56.009Z,29.27
2023-02-09T05:38:22.975Z,34.05
2023-02-09T05:40:50.251Z,31.85
2023-02-09T05:43:17.866Z,32.80
2023-02-09T05:45:46.023Z,37.17
2023-02-09T05:48:12.936Z,35.55
2023-02-09T05:50:39.818Z,28.05
2023-02-09T05:53:08.112Z,31.45
2023-02-09T05:55:34.915Z,39.00
2023-02-09T05:58:01.704Z,33.28
2023-02-09T06:00:29.859Z,33.83
2023-02-09T06:02:57.159Z,32.75
2023-02-09T06:05:24.395Z,29.20
2023-02-09T06:07:51.390Z,33.08
2023-02-09T06:10:19.120Z,28.50
2023-02-09T06:12:46.048Z,29.40
2023-02-09T06:15:13.070Z,32.72
2023-02-09T06:17:39.878Z,26.40
2023-02-09T06:20:07.131Z,37.83
2023-02-09T06:22:34.148Z,29.25
2023-02-09T06:25:01.068Z,28.02
2023-02-09T06:27:27.970Z,26.48
2023-02-09T06:29:54.765Z,25.77
2023-02-09T06:32:21.559Z,28.98
2023-02-09T06:34:48.322Z,28.02
2023-02-09T06:37:15.135Z,30.55
2023-02-09T06:39:41.937Z,34.83
2023-02-09T06:42:08.940Z,32.55
2023-02-09T06:44:35.710Z,29.55
2023-02-09T06:47:02.514Z,36.55
2023-02-09T06:49:29.377Z,29.67
2023-02-09T06:51:56.528Z,26.40
2023-02-09T06:54:23.517Z,31.33
2023-02-09T06:56:50.398Z,23.25
2023-02-09T06:59:17.235Z,21.85
2023-02-09T07:01:44.067Z,24.98
2023-02-09T07:04:10.932Z,25.48
2023-02-09T07:06:37.744Z,33.33
2023-02-09T07:09:04.651Z,29.85
2023-02-09T07:11:31.500Z,28.13
2023-02-09T07:13:58.271Z,28.00
2023-02-09T07:16:25.278Z,26.98
2023-02-09T07:18:52.155Z,29.45
2023-02-09T07:21:21.372Z,27.70
2023-02-09T07:23:48.728Z,32.30
2023-02-09T07:26:17.668Z,24.55
2023-02-09T07:28:44.958Z,24.77
2023-02-09T07:31:13.748Z,27.25
2023-02-09T07:33:40.937Z,25.90
2023-02-09T07:36:11.028Z,26.85
2023-02-09T07:38:38.728Z,24.42
2023-02-09T07:41:07.165Z,28.90
2023-02-09T07:43:34.560Z,22.92
2023-02-09T07:46:03.463Z,27.70
2023-02-09T07:48:30.873Z,24.77
2023-02-09T07:50:58.541Z,21.88
2023-02-09T07:53:26.194Z,26.35
2023-02-09T07:55:53.116Z,29.10
2023-02-09T07:58:21.194Z,24.48
2023-02-09T08:00:50.069Z,30.17
2023-02-09T08:03:20.328Z,24.10
2023-02-09T08:06:24.260Z,22.90
2023-02-09T08:08:53.463Z,23.23
2023-02-09T08:11:47.787Z,32.55
2023-02-09T08:14:22.097Z,24.15
2023-02-09T08:16:51.278Z,25.63
2023-02-09T08:19:23.625Z,23.63
2023-02-09T08:21:51.052Z,25.30
2023-02-09T08:24:20.506Z,26.35
2023-02-09T08:26:47.496Z,22.97
2023-02-09T08:29:14.413Z,31.73
2023-02-09T08:31:41.336Z,27.17
2023-02-09T08:34:08.230Z,23.17
2023-02-09T08:36:37.551Z,31.77
2023-02-09T08:39:05.710Z,26.20
2023-02-09T08:41:33.997Z,28.77
2023-02-09T08:44:00.821Z,23.25
2023-02-09T08:46:27.785Z,28.38
2023-02-09T08:48:54.933Z,19.95
2023-02-09T08:51:21.833Z,26.50
2023-02-09T08:53:52.548Z,30.88
2023-02-09T08:56:21.100Z,30.67
2023-02-09T08:58:48.468Z,28.77
2023-02-09T09:01:15.564Z,23.30
2023-02-09T09:03:42.523Z,29.52
2023-02-09T09:06:12.012Z,27.05
2023-02-09T09:08:40.364Z,24.00
2023-02-09T09:11:10.221Z,31.27
2023-02-09T09:13:37.022Z,25.58
2023-02-09T09:16:05.310Z,25.35
2023-02-09T09:18:32.802Z,22.50
2023-02-09T09:20:59.707Z,29.35
2023-02-09T09:23:26.675Z,31.27
2023-02-09T09:25:53.705Z,25.75
2023-02-09T09:28:20.582Z,27.67
2023-02-09T09:30:47.501Z,27.60
2023-02-09T09:33:14.368Z,30.95
2023-02-09T09:35:41.912Z,24.75
2023-02-09T09:38:08.890Z,24.08
2023-02-09T09:40:40.456Z,29.83
2023-02-09T09:43:34.619Z,23.85
2023-02-09T09:46:02.528Z,20.70
2023-02-09T09:48:44.332Z,35.60
2023-02-09T09:51:39.240Z,24.25
2023-02-09T09:54:17.425Z,19.52
2023-02-09T09:56:44.544Z,24.35
2023-02-09T09:59:17.868Z,25.85
2023-02-09T10:01:45.135Z,28.52
2023-02-09T10:04:14.589Z,23.55
2023-02-09T10:06:46.961Z,28.33
2023-02-09T10:09:29.730Z,28.30
2023-02-09T10:12:09.249Z,24.30
2023-02-09T10:14:36.065Z,25.17
2023-02-09T10:17:02.926Z,23.55
2023-02-09T10:19:30.452Z,18.77
2023-02-09T10:21:57.411Z,23.42
2023-02-09T10:24:32.736Z,23.30
2023-02-09T10:27:45.192Z,19.90
2023-02-09T10:30:28.848Z,22.25
2023-02-09T10:33:00.030Z,24.15
2023-02-09T10:35:32.458Z,20.27
2023-02-09T10:38:04.061Z,28.15
2023-02-09T10:43:01.739Z,26.33
2023-02-09T10:45:47.554Z,23.63
2023-02-09T10:48:14.530Z,25.38
2023-02-09T10:51:12.128Z,31.08
2023-02-09T10:53:42.191Z,25.60
2023-02-09T10:56:21.350Z,26.45
2023-02-09T10:59:03.722Z,27.95
2023-02-09T11:01:43.408Z,26.08
2023-02-09T11:04:16.202Z,27.80
2023-02-09T11:07:05.976Z,29.75
2023-02-09T11:09:44.743Z,24.42
2023-02-09T11:12:12.883Z,35.10
2023-02-09T11:14:42.461Z,31.42
2023-02-09T11:17:37.425Z,22.63
2023-02-09T11:20:52.667Z,20.60
2023-02-09T11:23:49.922Z,31.90
2023-02-09T11:26:36.350Z,29.77
2023-02-09T11:29:17.885Z,26.70
2023-02-09T11:32:11.131Z,27.00
2023-02-09T11:34:40.774Z,28.50
2023-02-09T11:37:25.299Z,24.95
2023-02-09T11:40:11.032Z,27.33
2023-02-09T11:42:44.032Z,27.92
2023-02-09T11:45:33.821Z,27.00
2023-02-09T11:48:04.136Z,31.08
2023-02-09T11:50:37.003Z,32.78
2023-02-09T11:53:14.958Z,35.05
2023-02-09T11:55:53.732Z,30.83
2023-02-09T11:58:32.615Z,32.20
2023-02-09T12:01:15.198Z,33.03
2023-02-09T12:04:08.620Z,31.45
2023-02-09T12:07:04.576Z,34.05
2023-02-09T12:09:43.396Z,30.08
2023-02-09T12:12:37.246Z,31.65
2023-02-09T12:15:39.063Z,33.45
2023-02-09T12:18:19.875Z,33.55
2023-02-09T12:20:51.634Z,35.35
2023-02-09T12:23:34.507Z,34.60
2023-02-09T12:26:16.284Z,33.97
2023-02-09T12:28:53.919Z,28.77
2023-02-09T12:31:25.277Z,28.45
2023-02-09T12:33:57.969Z,28.90
2023-02-09T12:36:29.631Z,31.15
2023-02-09T12:39:24.025Z,35.42
2023-02-09T12:41:51.003Z,35.45
2023-02-09T12:44:18.469Z,31.02
2023-02-09T12:46:47.934Z,31.70
2023-02-09T12:49:14.716Z,33.37
2023-02-09T12:51:50.698Z,31.10
2023-02-09T12:54:42.000Z,35.38
2023-02-09T12:57:18.828Z,31.75
2023-02-09T12:59:51.732Z,33.97
2023-02-09T13:02:37.964Z,35.50
2023-02-09T13:05:09.145Z,32.92
2023-02-09T13:07:59.166Z,30.48
2023-02-09T13:10:41.504Z,34.97
2023-02-09T13:13:11.087Z,29.70
2023-02-09T13:15:51.629Z,30.08
2023-02-09T13:18:35.070Z,32.33
2023-02-09T13:21:32.858Z,37.20
2023-02-09T13:24:04.373Z,32.10
2023-02-09T13:26:33.130Z,34.65
2023-02-09T13:29:19.877Z,29.83
2023-02-09T13:32:15.077Z,37.22
2023-02-09T13:35:06.480Z,34.25
2023-02-09T13:37:46.828Z,29.58
2023-02-09T13:40:19.161Z,33.75
2023-02-09T13:42:55.293Z,30.63
2023-02-09T13:45:24.047Z,49.15
2023-02-09T13:47:51.423Z,33.85
2023-02-09T13:50:23.833Z,34.22
2023-02-09T13:52:51.328Z,36.53
2023-02-09T13:55:26.558Z,28.05
2023-02-09T13:58:03.095Z,36.35
2023-02-09T14:00:44.234Z,40.10
2023-02-09T14:03:24.460Z,30.92
2023-02-09T14:06:02.309Z,36.70
2023-02-09T14:08:31.509Z,34.28
2023-02-09T14:11:15.029Z,29.77
2023-02-09T14:13:48.942Z,40.08
2023-02-09T14:16:18.043Z,35.67
2023-02-09T14:18:56.671Z,37.15
2023-02-09T14:21:44.611Z,31.08
2023-02-09T14:24:24.612Z,32.55
2023-02-09T14:26:59.977Z,29.35
2023-02-09T14:29:30.078Z,32.10
2023-02-09T14:32:32.307Z,51.50
2023-02-09T14:35:15.172Z,32.38
2023-02-09T14:37:43.267Z,33.50
2023-02-09T14:40:10.007Z,35.22
2023-02-09T14:42:54.996Z,33.42
2023-02-09T14:45:38.758Z,43.70
2023-02-09T14:48:36.792Z,41.22
2023-02-09T14:51:17.505Z,42.20
2023-02-09T14:53:44.523Z,49.00
2023-02-09T14:56:23.732Z,41.25
2023-02-09T14:58:50.623Z,42.20
2023-02-09T15:01:17.489Z,31.58
2023-02-09T15:03:44.348Z,38.35
2023-02-09T15:06:13.747Z,42.67
2023-02-09T15:08:41.000Z,34.42
2023-02-09T15:11:42.685Z,40.95
2023-02-09T15:14:11.490Z,39.90
2023-02-09T15:16:38.398Z,36.25
2023-02-09T15:19:13.592Z,39.42
2023-02-09T15:21:40.450Z,34.42
2023-02-09T15:24:07.240Z,39.97
2023-02-09T15:26:36.347Z,36.38
2023-02-09T15:29:09.696Z,37.67
2023-02-09T15:31:36.597Z,45.17
2023-02-09T15:34:04.797Z,40.17
2023-02-09T15:36:32.044Z,38.58
2023-02-09T15:38:58.950Z,40.72
2023-02-09T15:41:44.282Z,40.58
2023-02-09T15:44:36.148Z,52.25
2023-02-09T15:47:22.071Z,39.38
2023-02-09T15:49:49.100Z,42.67
2023-02-09T15:52:17.898Z,37.42
2023-02-09T15:54:45.239Z,39.05
2023-02-09T15:57:13.913Z,43.65
2023-02-09T15:59:41.538Z,42.03
2023-02-09T16:02:16.599Z,36.35
2023-02-09T16:04:43.481Z,42.00
2023-02-09T16:07:26.109Z,48.05
2023-02-09T16:09:53.040Z,35.88
2023-02-09T16:12:19.964Z,39.72
2023-02-09T16:14:46.819Z,37.38
2023-02-09T16:17:13.693Z,39.05
2023-02-09T16:19:40.580Z,37.80
2023-02-09T16:22:07.602Z,41.28
2023-02-09T16:24:44.197Z,44.28
2023-02-09T16:27:30.433Z,46.67
2023-02-09T16:29:58.659Z,35.35
2023-02-09T16:32:26.970Z,45.80
2023-02-09T16:34:55.026Z,39.55
2023-02-09T16:37:29.777Z,34.50
2023-02-09T16:39:58.234Z,42.75
2023-02-09T16:42:25.536Z,41.53
2023-02-09T16:44:53.032Z,42.40
2023-02-09T16:47:26.481Z,40.05
2023-02-09T16:50:05.586Z,43.28
2023-02-09T16:52:32.499Z,43.30
2023-02-09T16:55:01.439Z,44.63
2023-02-09T16:57:28.885Z,46.03
2023-02-09T16:59:55.724Z,39.75
2023-02-09T17:02:42.408Z,42.72
2023-02-09T17:05:22.468Z,40.88
2023-02-09T17:07:55.333Z,46.65
2023-02-09T17:10:27.486Z,45.00
2023-02-09T17:12:54.633Z,47.45
2023-02-09T17:15:31.820Z,38.58
2023-02-09T17:18:03.528Z,38.58
2023-02-09T17:20:37.490Z,46.63
2023-02-09T17:23:05.110Z,43.38
2023-02-09T17:25:32.260Z,45.95
2023-02-09T17:27:59.230Z,43.85
2023-02-09T17:30:26.092Z,43.58
2023-02-09T17:33:00.304Z,43.92
2023-02-09T17:35:53.105Z,42.60
2023-02-09T17:38:23.134Z,48.42
2023-02-09T17:40:51.253Z,42.08
2023-02-09T17:43:18.174Z,43.50
2023-02-09T17:45:49.282Z,45.80
2023-02-09T17:48:17.306Z,43.38
2023-02-09T17:50:45.375Z,45.72
2023-02-09T17:53:19.142Z,45.88
2023-02-09T17:55:46.891Z,43.65
2023-02-09T17:58:14.771Z,36.83
2023-02-09T18:00:43.447Z,53.13
2023-02-09T18:03:14.759Z,47.95
2023-02-09T18:05:41.762Z,40.30
2023-02-09T18:08:09.449Z,44.03
2023-02-09T18:10:36.695Z,40.83
2023-02-09T18:13:03.907Z,61.20
2023-02-09T18:15:35.948Z,39.28
2023-02-09T18:18:04.031Z,38.25
2023-02-09T18:20:33.280Z,36.13
2023-02-09T18:23:02.606Z,39.05
2023-02-09T18:25:34.780Z,40.50
2023-02-09T18:28:02.759Z,39.58
2023-02-09T18:30:32.813Z,44.00
2023-02-09T18:33:01.032Z,36.20
2023-02-09T18:35:37.084Z,33.35
2023-02-09T18:38:06.114Z,38.55
2023-02-09T18:40:33.589Z,36.38
2023-02-09T18:43:02.032Z,44.17
2023-02-09T18:45:30.573Z,41.00
2023-02-09T18:47:57.911Z,36.58
2023-02-09T18:50:28.062Z,38.53
2023-02-09T18:52:58.680Z,37.15
2023-02-09T18:55:30.822Z,51.38
2023-02-09T18:57:59.594Z,41.65
2023-02-09T19:00:27.036Z,33.63
2023-02-09T19:02:57.656Z,40.05
2023-02-09T19:05:28.428Z,31.42
2023-02-09T19:07:56.099Z,37.75
2023-02-09T19:10:23.706Z,39.22
2023-02-09T19:12:50.588Z,40.85
2023-02-09T19:15:18.795Z,36.97
2023-02-09T19:17:46.086Z,31.30
2023-02-09T19:20:19.056Z,35.80
2023-02-09T19:22:47.547Z,32.85
2023-02-09T19:25:14.956Z,37.20
2023-02-09T19:27:42.307Z,36.28
2023-02-09T19:30:14.035Z,35.25
2023-02-09T19:32:41.099Z,32.75
2023-02-09T19:35:08.470Z,32.75
2023-02-09T19:37:37.382Z,30.65
2023-02-09T19:40:07.090Z,28.33
2023-02-09T19:42:34.080Z,26.60
2023-02-09T19:45:00.934Z,34.45
2023-02-09T19:47:28.174Z,30.13
2023-02-09T19:49:56.415Z,33.78
2023-02-09T19:52:24.638Z,37.55
2023-02-09T19:54:51.556Z,27.52
2023-02-09T19:57:19.529Z,32.85
2023-02-09T19:59:46.430Z,30.60
2023-02-09T20:02:16.935Z,33.33
2023-02-09T20:07:14.165Z,30.63
2023-02-09T20:09:41.555Z,31.88
2023-02-09T20:12:08.499Z,28.20
2023-02-09T20:14:35.401Z,31.67
2023-02-09T20:17:02.144Z,28.73
2023-02-09T20:19:29.318Z,34.63
2023-02-09T20:21:56.302Z,30.60
2023-02-09T20:24:24.030Z,27.73
2023-02-09T20:26:50.866Z,33.08
2023-02-09T20:29:19.179Z,24.10
2023-02-09T20:31:46.168Z,30.15
2023-02-09T20:34:14.421Z,28.58
2023-02-09T20:36:42.826Z,33.45
2023-02-09T20:39:13.395Z,34.63
2023-02-09T20:42:00.189Z,28.67
2023-02-09T20:44:45.486Z,38.83
2023-02-09T20:47:12.487Z,26.60
2023-02-09T20:49:40.577Z,27.35
2023-02-09T20:52:08.880Z,22.60
2023-02-09T20:54:36.403Z,30.13
2023-02-09T20:57:03.835Z,30.67
2023-02-09T20:59:31.159Z,33.35
2023-02-09T21:01:58.610Z,46.78
2023-02-09T21:04:30.140Z,39.65
2023-02-09T21:06:57.796Z,27.52
2023-02-09T21:09:29.103Z,28.42
2023-02-09T21:11:56.378Z,33.63
2023-02-09T21:14:32.548Z,26.85
2023-02-09T21:17:07.764Z,28.98
2023-02-09T21:19:35.031Z,29.98
2023-02-09T21:22:02.316Z,30.10
2023-02-09T21:24:29.144Z,33.80
2023-02-09T21:26:55.974Z,26.23
2023-02-09T21:29:23.038Z,36.03
2023-02-09T21:31:51.303Z,36.95
2023-02-09T21:34:18.313Z,26.33
2023-02-09T21:36:45.130Z,32.53
2023-02-09T21:39:12.524Z,36.42
2023-02-09T21:41:57.873Z,32.35
2023-02-09T21:44:24.686Z,35.53
2023-02-09T21:46:51.750Z,33.95
2023-02-09T21:49:18.594Z,38.03
2023-02-09T21:51:45.550Z,48.58
2023-02-09T21:54:14.615Z,29.98
2023-02-09T21:56:41.874Z,38.88
2023-02-09T21:59:09.540Z,34.83
2023-02-09T22:01:36.582Z,32.22
2023-02-09T22:04:03.947Z,31.55
2023-02-09T22:06:31.351Z,35.15
2023-02-09T22:09:00.440Z,35.58
2023-02-09T22:11:27.342Z,33.38
2023-02-09T22:13:54.334Z,40.83
2023-02-09T22:16:22.364Z,31.40
2023-02-09T22:18:49.594Z,31.85
2023-02-09T22:21:16.977Z,28.75
2023-02-09T22:23:43.777Z,30.90
2023-02-09T22:26:13.723Z,29.38
2023-02-09T22:28:41.592Z,28.73
2023-02-09T22:31:13.857Z,32.35
2023-02-09T22:33:40.832Z,32.95
2023-02-09T22:36:10.937Z,34.53
2023-02-09T22:38:38.046Z,28.35
2023-02-09T22:41:21.413Z,28.98
2023-02-09T22:43:54.341Z,31.70
2023-02-09T22:46:22.955Z,32.40
2023-02-09T22:48:54.887Z,35.53
2023-02-09T22:51:23.965Z,27.48
2023-02-09T22:53:50.908Z,36.70
2023-02-09T22:56:17.777Z,24.25
2023-02-09T22:58:45.162Z,23.00
2023-02-09T23:01:12.659Z,34.17
2023-02-09T23:03:40.249Z,33.00
2023-02-09T23:06:10.965Z,25.83
2023-02-09T23:08:37.763Z,28.38
2023-02-09T23:11:07.412Z,29.63
2023-02-09T23:13:35.615Z,35.83
2023-02-09T23:16:10.069Z,31.63
2023-02-09T23:18:37.467Z,31.08
2023-02-09T23:21:08.102Z,27.08
2023-02-09T23:23:35.607Z,26.13
2023-02-09T23:26:02.771Z,22.85
2023-02-09T23:28:29.642Z,30.02
2023-02-09T23:30:56.739Z,28.52
2023-02-09T23:33:23.572Z,28.10
2023-02-09T23:35:50.357Z,22.23
2023-02-09T23:38:18.513Z,24.15
2023-02-09T23:40:45.320Z,20.33
2023-02-09T23:43:12.222Z,21.52
2023-02-09T23:45:39.038Z,32.88
2023-02-09T23:48:06.141Z,17.20
2023-02-09T23:50:32.961Z,24.25
2023-02-09T23:52:59.772Z,21.13
2023-02-09T23:55:26.526Z,19.65
2023-02-09T23:57:53.333Z,23.65
